Woodland Park, Colorado
Current Conditions -  °F | °C
As of 10:58 PM on Wednesday 17 Dec 2014 (Local Time) from KAFF Reporting Station
Light Snow Light Snow  
Wind Chill: 29°   Ceiling: 200
Heat Index: 29°   Visibility: 4mi
Dew Point: 29°   Wind: 2mph
Humidity: 99%   Direction: 150°SSE
Pressure: 29.98"   Gusts: NA
Location:  38.99°N, 105.05°W
Report Text: KAFF 180558Z AUTO 15002KT 4SM -SN BR OVC002 M01/M01 A2998 RMK AO2 SLP159 P0000 60000 T10141015 10007 21014 52008
Loading
Personal Weather Stations






























Interactive Weather Map New forecast layout! Learn more

10-Day Weather Forecast

Advertisements
Track Severe Weather on mobile